Prospector, Canada
Current Conditions -  °F | °C
As of 7:00 PM on Friday 24 Oct 2014 (Local Time) from CYQD Reporting Station
Light Rain Light Rain  
Wind Chill: 37°   Ceiling: 2500
Heat Index: 45°   Visibility: 15mi
Dew Point: 37°   Wind: 16mph
Humidity: 76%   Direction: 280°W
Pressure: 29.61"   Gusts: 22mph
Location:  52.95°N, 101.27°W
Report Text: CYQD 250000Z 28014G19KT 15SM -RA OVC025 07/03 A2961 RMK SC7SLP037
Loading
Personal Weather Stations






























Interactive Weather Map
Tropical Storm Tracking
New forecast layout! Learn more

10-Day Weather Forecast

Advertisements
Track Severe Weather on mobile